Airfield :
LOGIN :

Register | Disclaimer

   EN    FR    IT 

 










Legend :    VFR   Marginal VFR   IFR   Intensive IFR   Very Intensive IFR
Visi :
Ceiling :
>= 8 km
>= 3000ft
5 to 8 km
1000 to 3000 ft
1500m to 5 km
500 to 1000 ft
800 to 1500m
200 to 500 ft
< 800m
< 200 ft
Symbols :   Thunderstorms  Fog  Heavy snow  Heavy precipitations  Wind > 20 kt
SIGMETs :     Misc.  Thunderstorms  Icing  Turbulence  Mountain Waves  Volcanic Ashes






- Airport Elevation : 1860 ft
- IATA code : GRX


LEGR - Granada

CURRENT METAR :
  • 210630Z VRB01KT 9999 FEW020 SCT090 04/02 Q1012

EXPIRED METARs :
  • 210600Z 00000KT 9999 FEW040 SCT110 03/01 Q1012
  • 210530Z 00000KT 9999 FEW045 SCT100 03/01 Q1012
  • 210500Z 27003KT 9999 SCT070 02/01 Q1012
  • 210430Z AUTO 00000KT CAVOK 03/01 Q1012
  • 210400Z AUTO VRB01KT 9999 FEW097 03/01 Q1013

TAF TAF LEGR
Valid from the 21 at 03:00 until the 22 at 03:00 UTC


210200Z 2103/2203 04006KT 9999 FEW025 SCT050 TX10/2115Z TN02/2107Z
PROB30
TEMPO 2116/2201 4000 SHRA SCT020 SCT030TCU



MET'MAP, your aeronautical weather chart ! - Copyright ORBIFLY December 2007 - Disclaimer

ORBIFLY MET'MAP TEAM :

Programming & Development : Alexandra Zaïnal
Concept & original design : Baudouin d'Aumeries
Assistance for programming : Marc-Olivier Méhu
Technical & hardware support : Manuel Goepfert

Contact : metmap@orbifly.com




SOURCES & CREDITS :

   NOAA